sensor_id;sensor_type;location;lat;lon;timestamp;pressure;altitude;pressure_sealevel;temperature;humidity
80248;BME280;69560;52.206;21.018;2024-01-10T00:02:26;101971.37;;;-5.12;45.09
80248;BME280;69560;52.206;21.018;2024-01-10T00:04:52;101965.71;;;-5.13;45.21
80248;BME280;69560;52.206;21.018;2024-01-10T00:07:19;101955.45;;;-5.14;45.22
80248;BME280;69560;52.206;21.018;2024-01-10T00:09:45;101955.55;;;-5.15;45.26
80248;BME280;69560;52.206;21.018;2024-01-10T00:12:12;101959.68;;;-5.14;45.31
80248;BME280;69560;52.206;21.018;2024-01-10T00:14:38;101955.29;;;-5.11;45.33
80248;BME280;69560;52.206;21.018;2024-01-10T00:17:05;101959.77;;;-5.06;45.31
80248;BME280;69560;52.206;21.018;2024-01-10T00:19:31;101954.06;;;-5.01;45.32
80248;BME280;69560;52.206;21.018;2024-01-10T00:21:58;101951.91;;;-4.93;45.36
80248;BME280;69560;52.206;21.018;2024-01-10T00:24:24;101953.97;;;-4.84;45.37
80248;BME280;69560;52.206;21.018;2024-01-10T00:26:51;101954.17;;;-4.77;45.23
80248;BME280;69560;52.206;21.018;2024-01-10T00:29:17;101951.48;;;-4.71;45.21
80248;BME280;69560;52.206;21.018;2024-01-10T00:31:44;101947.39;;;-4.67;45.02
80248;BME280;69560;52.206;21.018;2024-01-10T00:34:11;101952.62;;;-4.61;44.98
80248;BME280;69560;52.206;21.018;2024-01-10T00:36:37;101957.30;;;-4.52;44.89
80248;BME280;69560;52.206;21.018;2024-01-10T00:39:04;101959.25;;;-4.46;44.81
80248;BME280;69560;52.206;21.018;2024-01-10T00:41:30;101959.52;;;-4.41;44.74
80248;BME280;69560;52.206;21.018;2024-01-10T00:43:57;101956.71;;;-4.38;44.60
80248;BME280;69560;52.206;21.018;2024-01-10T00:46:23;101956.49;;;-4.38;44.45
80248;BME280;69560;52.206;21.018;2024-01-10T00:48:49;101959.25;;;-4.35;44.47
80248;BME280;69560;52.206;21.018;2024-01-10T00:51:16;101962.67;;;-4.29;44.45
80248;BME280;69560;52.206;21.018;2024-01-10T00:53:43;101958.25;;;-4.28;44.34
80248;BME280;69560;52.206;21.018;2024-01-10T00:56:09;101958.17;;;-4.28;44.28
80248;BME280;69560;52.206;21.018;2024-01-10T00:58:36;101958.98;;;-4.27;44.21
80248;BME280;69560;52.206;21.018;2024-01-10T01:01:02;101962.12;;;-4.28;44.17
80248;BME280;69560;52.206;21.018;2024-01-10T01:03:28;101960.27;;;-4.27;44.17
80248;BME280;69560;52.206;21.018;2024-01-10T01:05:55;101960.45;;;-4.31;44.06
80248;BME280;69560;52.206;21.018;2024-01-10T01:08:21;101954.15;;;-4.33;44.04
80248;BME280;69560;52.206;21.018;2024-01-10T01:10:48;101954.02;;;-4.33;44.14
80248;BME280;69560;52.206;21.018;2024-01-10T01:13:14;101950.48;;;-4.33;44.17
80248;BME280;69560;52.206;21.018;2024-01-10T01:15:41;101945.54;;;-4.35;44.16
80248;BME280;69560;52.206;21.018;2024-01-10T01:18:07;101945.32;;;-4.37;44.15
80248;BME280;69560;52.206;21.018;2024-01-10T01:20:36;101943.52;;;-4.41;44.27
80248;BME280;69560;52.206;21.018;2024-01-10T01:23:03;101934.98;;;-4.43;44.22
80248;BME280;69560;52.206;21.018;2024-01-10T01:25:29;101937.40;;;-4.47;44.23
80248;BME280;69560;52.206;21.018;2024-01-10T01:27:56;101934.59;;;-4.49;44.39
80248;BME280;69560;52.206;21.018;2024-01-10T01:30:25;101933.42;;;-4.50;44.44
80248;BME280;69560;52.206;21.018;2024-01-10T01:32:52;101932.11;;;-4.50;44.56
80248;BME280;69560;52.206;21.018;2024-01-10T01:35:19;101928.69;;;-4.53;44.56
80248;BME280;69560;52.206;21.018;2024-01-10T01:37:48;101923.02;;;-4.53;44.58
80248;BME280;69560;52.206;21.018;2024-01-10T01:40:15;101923.61;;;-4.57;44.57
80248;BME280;69560;52.206;21.018;2024-01-10T01:42:44;101918.61;;;-4.60;44.65
80248;BME280;69560;52.206;21.018;2024-01-10T01:45:12;101917.14;;;-4.59;44.75
80248;BME280;69560;52.206;21.018;2024-01-10T01:47:39;101911.33;;;-4.57;44.85
80248;BME280;69560;52.206;21.018;2024-01-10T01:50:07;101914.17;;;-4.55;44.88
80248;BME280;69560;52.206;21.018;2024-01-10T01:52:34;101912.39;;;-4.56;44.89
80248;BME280;69560;52.206;21.018;2024-01-10T01:55:01;101912.98;;;-4.54;44.90
80248;BME280;69560;52.206;21.018;2024-01-10T01:57:29;101912.33;;;-4.51;44.95
80248;BME280;69560;52.206;21.018;2024-01-10T01:59:56;101912.80;;;-4.53;44.95
80248;BME280;69560;52.206;21.018;2024-01-10T02:02:24;101909.19;;;-4.53;44.97
80248;BME280;69560;52.206;21.018;2024-01-10T02:04:50;101908.49;;;-4.54;44.96
80248;BME280;69560;52.206;21.018;2024-01-10T02:07:17;101915.60;;;-4.53;44.99
80248;BME280;69560;52.206;21.018;2024-01-10T02:09:43;101912.95;;;-4.54;44.90
80248;BME280;69560;52.206;21.018;2024-01-10T02:12:10;101916.73;;;-4.61;44.80
80248;BME280;69560;52.206;21.018;2024-01-10T02:14:36;101915.79;;;-4.64;44.82
80248;BME280;69560;52.206;21.018;2024-01-10T02:17:03;101917.48;;;-4.69;44.88
80248;BME280;69560;52.206;21.018;2024-01-10T02:19:30;101918.57;;;-4.73;44.83
80248;BME280;69560;52.206;21.018;2024-01-10T02:21:58;101916.99;;;-4.75;44.97
80248;BME280;69560;52.206;21.018;2024-01-10T02:24:25;101911.67;;;-4.76;44.93
80248;BME280;69560;52.206;21.018;2024-01-10T02:26:51;101912.05;;;-4.75;45.09
80248;BME280;69560;52.206;21.018;2024-01-10T02:29:18;101904.90;;;-4.73;45.21
80248;BME280;69560;52.206;21.018;2024-01-10T02:31:44;101900.94;;;-4.70;45.15
80248;BME280;69560;52.206;21.018;2024-01-10T02:34:11;101903.34;;;-4.69;45.09
80248;BME280;69560;52.206;21.018;2024-01-10T02:36:37;101905.16;;;-4.70;45.06
80248;BME280;69560;52.206;21.018;2024-01-10T02:39:04;101904.30;;;-4.69;45.21
80248;BME280;69560;52.206;21.018;2024-01-10T02:41:30;101903.33;;;-4.71;45.09
80248;BME280;69560;52.206;21.018;2024-01-10T02:43:56;101897.11;;;-4.73;45.10
80248;BME280;69560;52.206;21.018;2024-01-10T02:46:25;101899.74;;;-4.77;45.06
80248;BME280;69560;52.206;21.018;2024-01-10T02:48:56;101899.97;;;-4.79;45.10
80248;BME280;69560;52.206;21.018;2024-01-10T02:51:24;101892.42;;;-4.78;45.22
80248;BME280;69560;52.206;21.018;2024-01-10T02:53:51;101882.80;;;-4.75;45.21
80248;BME280;69560;52.206;21.018;2024-01-10T02:56:17;101877.00;;;-4.74;45.28
80248;BME280;69560;52.206;21.018;2024-01-10T02:58:44;101868.50;;;-4.74;45.23
80248;BME280;69560;52.206;21.018;2024-01-10T03:01:10;101870.48;;;-4.72;45.28
80248;BME280;69560;52.206;21.018;2024-01-10T03:03:36;101868.98;;;-4.71;45.28
80248;BME280;69560;52.206;21.018;2024-01-10T03:06:03;101868.52;;;-4.72;45.26
80248;BME280;69560;52.206;21.018;2024-01-10T03:08:29;101862.83;;;-4.73;45.27
80248;BME280;69560;52.206;21.018;2024-01-10T03:10:56;101858.66;;;-4.73;45.34
80248;BME280;69560;52.206;21.018;2024-01-10T03:13:22;101853.47;;;-4.77;45.32
80248;BME280;69560;52.206;21.018;2024-01-10T03:15:49;101851.35;;;-4.81;45.27
80248;BME280;69560;52.206;21.018;2024-01-10T03:18:15;101852.63;;;-4.89;45.24
80248;BME280;69560;52.206;21.018;2024-01-10T03:20:42;101848.30;;;-4.91;45.41
80248;BME280;69560;52.206;21.018;2024-01-10T03:23:08;101849.94;;;-4.87;45.58
80248;BME280;69560;52.206;21.018;2024-01-10T03:25:34;101847.67;;;-4.86;45.66
80248;BME280;69560;52.206;21.018;2024-01-10T03:28:01;101845.33;;;-4.87;45.51
80248;BME280;69560;52.206;21.018;2024-01-10T03:30:27;101846.58;;;-4.87;45.66
80248;BME280;69560;52.206;21.018;2024-01-10T03:32:54;101838.08;;;-4.87;45.68
80248;BME280;69560;52.206;21.018;2024-01-10T03:35:20;101840.08;;;-4.87;45.68
80248;BME280;69560;52.206;21.018;2024-01-10T03:37:47;101844.08;;;-4.87;45.71
80248;BME280;69560;52.206;21.018;2024-01-10T03:40:13;101844.33;;;-4.95;45.62
80248;BME280;69560;52.206;21.018;2024-01-10T03:42:40;101844.34;;;-4.97;45.77
80248;BME280;69560;52.206;21.018;2024-01-10T03:45:06;101845.75;;;-4.95;45.84
80248;BME280;69560;52.206;21.018;2024-01-10T03:47:33;101845.44;;;-4.96;45.84
80248;BME280;69560;52.206;21.018;2024-01-10T03:49:59;101847.10;;;-5.00;45.82
80248;BME280;69560;52.206;21.018;2024-01-10T03:52:28;101840.02;;;-5.00;45.91
80248;BME280;69560;52.206;21.018;2024-01-10T03:54:56;101834.02;;;-5.00;45.98
80248;BME280;69560;52.206;21.018;2024-01-10T03:57:23;101827.23;;;-4.96;46.08
80248;BME280;69560;52.206;21.018;2024-01-10T03:59:50;101830.11;;;-4.93;46.06
80248;BME280;69560;52.206;21.018;2024-01-10T04:02:16;101830.70;;;-4.91;46.12
80248;BME280;69560;52.206;21.018;2024-01-10T04:04:43;101826.55;;;-4.95;45.97
80248;BME280;69560;52.206;21.018;2024-01-10T04:07:09;101827.10;;;-4.99;45.91
80248;BME280;69560;52.206;21.018;2024-01-10T04:09:36;101815.26;;;-5.03;45.94
80248;BME280;69560;52.206;21.018;2024-01-10T04:12:02;101811.91;;;-5.07;46.01
80248;BME280;69560;52.206;21.018;2024-01-10T04:14:29;101810.15;;;-5.08;46.00
80248;BME280;69560;52.206;21.018;2024-01-10T04:16:55;101811.05;;;-5.06;46.04
80248;BME280;69560;52.206;21.018;2024-01-10T04:19:21;101808.73;;;-5.08;46.06
80248;BME280;69560;52.206;21.018;2024-01-10T04:21:48;101805.16;;;-5.10;46.03
80248;BME280;69560;52.206;21.018;2024-01-10T04:24:14;101810.91;;;-5.09;46.08
80248;BME280;69560;52.206;21.018;2024-01-10T04:26:41;101805.27;;;-5.10;46.11
80248;BME280;69560;52.206;21.018;2024-01-10T04:29:08;101807.66;;;-5.06;46.25
80248;BME280;69560;52.206;21.018;2024-01-10T04:31:34;101804.00;;;-5.03;46.31
80248;BME280;69560;52.206;21.018;2024-01-10T04:34:01;101801.52;;;-4.97;46.37
80248;BME280;69560;52.206;21.018;2024-01-10T04:36:28;101797.09;;;-4.93;46.42
80248;BME280;69560;52.206;21.018;2024-01-10T04:38:54;101793.74;;;-4.95;46.26
80248;BME280;69560;52.206;21.018;2024-01-10T04:41:21;101800.42;;;-4.93;46.29
80248;BME280;69560;52.206;21.018;2024-01-10T04:43:48;101799.83;;;-4.90;46.28
80248;BME280;69560;52.206;21.018;2024-01-10T04:46:14;101800.81;;;-4.88;46.34
80248;BME280;69560;52.206;21.018;2024-01-10T04:48:41;101800.08;;;-4.89;46.36
80248;BME280;69560;52.206;21.018;2024-01-10T04:51:07;101799.78;;;-4.88;46.35
80248;BME280;69560;52.206;21.018;2024-01-10T04:53:34;101799.98;;;-4.88;46.32
80248;BME280;69560;52.206;21.018;2024-01-10T04:56:00;101802.09;;;-4.90;46.28
80248;BME280;69560;52.206;21.018;2024-01-10T04:58:29;101808.46;;;-4.93;46.34
80248;BME280;69560;52.206;21.018;2024-01-10T05:00:56;101811.92;;;-4.93;46.37
80248;BME280;69560;52.206;21.018;2024-01-10T05:03:22;101812.40;;;-4.95;46.36
80248;BME280;69560;52.206;21.018;2024-01-10T05:05:49;101817.70;;;-4.97;46.34
80248;BME280;69560;52.206;21.018;2024-01-10T05:08:15;101820.66;;;-5.00;46.31
80248;BME280;69560;52.206;21.018;2024-01-10T05:10:42;101819.35;;;-5.02;46.38
80248;BME280;69560;52.206;21.018;2024-01-10T05:13:08;101815.48;;;-5.03;46.43
80248;BME280;69560;52.206;21.018;2024-01-10T05:15:34;101820.20;;;-5.04;46.44
80248;BME280;69560;52.206;21.018;2024-01-10T05:18:01;101822.39;;;-5.05;46.47
80248;BME280;69560;52.206;21.018;2024-01-10T05:20:29;101824.03;;;-5.03;46.59
80248;BME280;69560;52.206;21.018;2024-01-10T05:22:55;101820.80;;;-5.04;46.60
80248;BME280;69560;52.206;21.018;2024-01-10T05:25:24;101817.64;;;-5.05;46.45
80248;BME280;69560;52.206;21.018;2024-01-10T05:27:51;101814.79;;;-5.06;46.49
80248;BME280;69560;52.206;21.018;2024-01-10T05:30:17;101807.75;;;-5.06;46.59
80248;BME280;69560;52.206;21.018;2024-01-10T05:32:44;101806.77;;;-5.05;46.58
80248;BME280;69560;52.206;21.018;2024-01-10T05:35:10;101805.65;;;-5.08;46.46
80248;BME280;69560;52.206;21.018;2024-01-10T05:37:37;101809.36;;;-5.08;46.42
80248;BME280;69560;52.206;21.018;2024-01-10T05:40:05;101813.52;;;-5.11;46.37
80248;BME280;69560;52.206;21.018;2024-01-10T05:42:32;101816.25;;;-5.10;46.50
80248;BME280;69560;52.206;21.018;2024-01-10T05:45:01;101817.55;;;-5.14;46.37
80248;BME280;69560;52.206;21.018;2024-01-10T05:47:28;101815.64;;;-5.14;46.50
80248;BME280;69560;52.206;21.018;2024-01-10T05:49:55;101816.83;;;-5.16;46.49
80248;BME280;69560;52.206;21.018;2024-01-10T05:52:21;101820.63;;;-5.16;46.53
80248;BME280;69560;52.206;21.018;2024-01-10T05:54:51;101819.81;;;-5.14;46.60
80248;BME280;69560;52.206;21.018;2024-01-10T05:57:17;101821.83;;;-5.13;46.57
80248;BME280;69560;52.206;21.018;2024-01-10T05:59:44;101819.33;;;-5.16;46.58
80248;BME280;69560;52.206;21.018;2024-01-10T06:02:10;101818.39;;;-5.14;46.66
80248;BME280;69560;52.206;21.018;2024-01-10T06:04:37;101817.11;;;-5.16;46.56
80248;BME280;69560;52.206;21.018;2024-01-10T06:07:06;101814.23;;;-5.17;46.64
80248;BME280;69560;52.206;21.018;2024-01-10T06:09:32;101808.92;;;-5.16;46.64
80248;BME280;69560;52.206;21.018;2024-01-10T06:11:59;101800.15;;;-5.20;46.66
80248;BME280;69560;52.206;21.018;2024-01-10T06:14:26;101794.09;;;-5.18;46.68
80248;BME280;69560;52.206;21.018;2024-01-10T06:16:52;101793.93;;;-5.16;46.75
80248;BME280;69560;52.206;21.018;2024-01-10T06:19:19;101789.58;;;-5.14;46.78
80248;BME280;69560;52.206;21.018;2024-01-10T06:21:45;101792.63;;;-5.15;46.68
80248;BME280;69560;52.206;21.018;2024-01-10T06:24:11;101788.71;;;-5.17;46.79
80248;BME280;69560;52.206;21.018;2024-01-10T06:26:38;101793.36;;;-5.20;46.77
80248;BME280;69560;52.206;21.018;2024-01-10T06:29:05;101792.25;;;-5.17;46.89
80248;BME280;69560;52.206;21.018;2024-01-10T06:31:31;101794.54;;;-5.14;46.87
80248;BME280;69560;52.206;21.018;2024-01-10T06:33:58;101799.31;;;-5.14;46.91
80248;BME280;69560;52.206;21.018;2024-01-10T06:36:24;101803.38;;;-5.17;46.93
80248;BME280;69560;52.206;21.018;2024-01-10T06:38:51;101804.74;;;-5.18;46.94
80248;BME280;69560;52.206;21.018;2024-01-10T06:41:21;101813.66;;;-5.23;46.88
80248;BME280;69560;52.206;21.018;2024-01-10T06:43:53;101818.06;;;-5.22;47.11
80248;BME280;69560;52.206;21.018;2024-01-10T06:46:20;101813.06;;;-5.22;47.03
80248;BME280;69560;52.206;21.018;2024-01-10T06:48:47;101816.31;;;-5.22;47.15
80248;BME280;69560;52.206;21.018;2024-01-10T06:51:14;101818.34;;;-5.20;47.19
80248;BME280;69560;52.206;21.018;2024-01-10T06:53:40;101814.02;;;-5.18;47.22
80248;BME280;69560;52.206;21.018;2024-01-10T06:56:07;101817.48;;;-5.16;47.30
80248;BME280;69560;52.206;21.018;2024-01-10T06:58:35;101818.82;;;-5.13;47.27
80248;BME280;69560;52.206;21.018;2024-01-10T07:01:02;101816.62;;;-5.10;47.30
80248;BME280;69560;52.206;21.018;2024-01-10T07:03:32;101817.02;;;-5.08;47.29
80248;BME280;69560;52.206;21.018;2024-01-10T07:06:01;101815.27;;;-5.08;47.22
80248;BME280;69560;52.206;21.018;2024-01-10T07:08:27;101819.77;;;-5.08;47.17
80248;BME280;69560;52.206;21.018;2024-01-10T07:10:54;101816.87;;;-5.07;47.23
80248;BME280;69560;52.206;21.018;2024-01-10T07:13:22;101823.24;;;-5.08;47.23
80248;BME280;69560;52.206;21.018;2024-01-10T07:15:48;101825.52;;;-5.07;47.15
80248;BME280;69560;52.206;21.018;2024-01-10T07:18:17;101822.29;;;-5.03;47.25
80248;BME280;69560;52.206;21.018;2024-01-10T07:20:43;101821.52;;;-4.98;47.31
80248;BME280;69560;52.206;21.018;2024-01-10T07:23:10;101825.39;;;-4.95;47.19
80248;BME280;69560;52.206;21.018;2024-01-10T07:25:36;101827.73;;;-4.92;47.26
80248;BME280;69560;52.206;21.018;2024-01-10T07:28:06;101825.61;;;-4.86;47.26
80248;BME280;69560;52.206;21.018;2024-01-10T07:30:33;101826.33;;;-4.81;47.24
80248;BME280;69560;52.206;21.018;2024-01-10T07:32:59;101823.20;;;-4.75;47.32
80248;BME280;69560;52.206;21.018;2024-01-10T07:35:26;101825.19;;;-4.70;47.15
80248;BME280;69560;52.206;21.018;2024-01-10T07:37:53;101823.02;;;-4.64;47.14
80248;BME280;69560;52.206;21.018;2024-01-10T07:40:19;101815.69;;;-4.55;47.17
80248;BME280;69560;52.206;21.018;2024-01-10T07:42:46;101816.45;;;-4.45;47.22
80248;BME280;69560;52.206;21.018;2024-01-10T07:45:12;101815.71;;;-4.35;47.13
80248;BME280;69560;52.206;21.018;2024-01-10T07:47:38;101816.98;;;-4.24;47.11
80248;BME280;69560;52.206;21.018;2024-01-10T07:50:09;101816.17;;;-4.16;47.06
80248;BME280;69560;52.206;21.018;2024-01-10T07:53:03;101814.91;;;-4.05;47.00
80248;BME280;69560;52.206;21.018;2024-01-10T07:55:32;101810.72;;;-3.96;46.90
80248;BME280;69560;52.206;21.018;2024-01-10T07:58:09;101814.97;;;-3.86;46.89
80248;BME280;69560;52.206;21.018;2024-01-10T08:00:36;101816.53;;;-3.80;46.89
80248;BME280;69560;52.206;21.018;2024-01-10T08:03:03;101817.84;;;-3.71;46.91
80248;BME280;69560;52.206;21.018;2024-01-10T08:05:29;101822.71;;;-3.62;46.85
80248;BME280;69560;52.206;21.018;2024-01-10T08:07:56;101822.44;;;-3.49;46.91
80248;BME280;69560;52.206;21.018;2024-01-10T08:10:23;101820.05;;;-3.33;47.13
80248;BME280;69560;52.206;21.018;2024-01-10T08:12:50;101811.97;;;-3.05;47.48
80248;BME280;69560;52.206;21.018;2024-01-10T08:15:19;101816.78;;;-2.62;47.70
80248;BME280;69560;52.206;21.018;2024-01-10T08:17:46;101820.30;;;-2.22;47.52
80248;BME280;69560;52.206;21.018;2024-01-10T08:20:12;101817.90;;;-1.84;46.93
80248;BME280;69560;52.206;21.018;2024-01-10T08:22:42;101822.33;;;-1.62;46.15
80248;BME280;69560;52.206;21.018;2024-01-10T08:25:10;101820.98;;;-1.44;45.45
80248;BME280;69560;52.206;21.018;2024-01-10T08:27:39;101815.37;;;-0.99;45.69
80248;BME280;69560;52.206;21.018;2024-01-10T08:30:07;101818.38;;;-0.37;45.69
80248;BME280;69560;52.206;21.018;2024-01-10T08:32:36;101808.19;;;0.10;45.49
80248;BME280;69560;52.206;21.018;2024-01-10T08:35:16;101809.34;;;0.50;45.12
80248;BME280;69560;52.206;21.018;2024-01-10T08:37:52;101809.59;;;0.91;44.92
80248;BME280;69560;52.206;21.018;2024-01-10T08:40:33;101809.42;;;1.31;44.54
80248;BME280;69560;52.206;21.018;2024-01-10T08:42:59;101807.58;;;1.81;44.48
80248;BME280;69560;52.206;21.018;2024-01-10T08:45:25;101801.66;;;2.32;44.45
80248;BME280;69560;52.206;21.018;2024-01-10T08:47:52;101797.83;;;2.43;43.10
80248;BME280;69560;52.206;21.018;2024-01-10T08:50:19;101797.11;;;2.93;43.05
80248;BME280;69560;52.206;21.018;2024-01-10T08:52:45;101799.14;;;3.79;43.38
80248;BME280;69560;52.206;21.018;2024-01-10T08:55:12;101790.80;;;4.66;43.24
80248;BME280;69560;52.206;21.018;2024-01-10T08:57:41;101792.08;;;5.26;42.20
80248;BME280;69560;52.206;21.018;2024-01-10T09:00:08;101793.95;;;5.70;41.19
80248;BME280;69560;52.206;21.018;2024-01-10T09:02:38;101804.96;;;5.90;40.22
80248;BME280;69560;52.206;21.018;2024-01-10T09:05:05;101807.34;;;6.04;39.45
80248;BME280;69560;52.206;21.018;2024-01-10T09:07:34;101814.85;;;6.02;38.44
80248;BME280;69560;52.206;21.018;2024-01-10T09:10:00;101820.22;;;5.62;37.45
80248;BME280;69560;52.206;21.018;2024-01-10T09:12:27;101824.33;;;5.30;37.25
80248;BME280;69560;52.206;21.018;2024-01-10T09:14:54;101825.00;;;4.96;36.81
80248;BME280;69560;52.206;21.018;2024-01-10T09:17:21;101831.86;;;4.97;37.36
80248;BME280;69560;52.206;21.018;2024-01-10T09:19:47;101826.81;;;5.54;38.27
80248;BME280;69560;52.206;21.018;2024-01-10T09:22:45;101821.08;;;6.42;39.03
80248;BME280;69560;52.206;21.018;2024-01-10T09:25:11;101819.35;;;7.40;38.76
80248;BME280;69560;52.206;21.018;2024-01-10T09:27:39;101810.44;;;8.29;38.53
80248;BME280;69560;52.206;21.018;2024-01-10T09:30:11;101803.73;;;9.20;38.14
80248;BME280;69560;52.206;21.018;2024-01-10T09:32:41;101804.11;;;9.90;37.45
80248;BME280;69560;52.206;21.018;2024-01-10T09:35:09;101805.67;;;10.44;36.69
80248;BME280;69560;52.206;21.018;2024-01-10T09:37:40;101805.30;;;10.63;35.56
80248;BME280;69560;52.206;21.018;2024-01-10T09:40:07;101805.05;;;10.64;34.83
80248;BME280;69560;52.206;21.018;2024-01-10T09:42:40;101808.17;;;10.76;34.48
80248;BME280;69560;52.206;21.018;2024-01-10T09:45:20;101808.70;;;10.70;33.91
80248;BME280;69560;52.206;21.018;2024-01-10T09:51:09;101810.77;;;10.99;32.98
80248;BME280;69560;52.206;21.018;2024-01-10T09:53:43;101809.63;;;11.29;32.89
80248;BME280;69560;52.206;21.018;2024-01-10T09:56:11;101806.45;;;11.42;32.56
80248;BME280;69560;52.206;21.018;2024-01-10T09:59:09;101806.71;;;11.28;31.93
80248;BME280;69560;52.206;21.018;2024-01-10T10:01:40;101814.74;;;11.11;31.25
80248;BME280;69560;52.206;21.018;2024-01-10T10:04:27;101813.91;;;11.14;31.27
80248;BME280;69560;52.206;21.018;2024-01-10T10:06:59;101814.42;;;11.49;31.47
80248;BME280;69560;52.206;21.018;2024-01-10T10:09:39;101811.84;;;11.50;31.24
80248;BME280;69560;52.206;21.018;2024-01-10T10:12:06;101803.35;;;11.90;31.38
80248;BME280;69560;52.206;21.018;2024-01-10T10:14:32;101802.68;;;12.07;31.13
80248;BME280;69560;52.206;21.018;2024-01-10T10:20:40;101796.98;;;12.40;30.57
80248;BME280;69560;52.206;21.018;2024-01-10T10:23:08;101793.97;;;11.78;29.69
80248;BME280;69560;52.206;21.018;2024-01-10T10:26:41;101788.79;;;10.88;29.25
80248;BME280;69560;52.206;21.018;2024-01-10T10:29:41;101784.13;;;10.13;29.31
80248;BME280;69560;52.206;21.018;2024-01-10T10:32:08;101779.45;;;9.86;29.58
80248;BME280;69560;52.206;21.018;2024-01-10T10:43:44;101769.05;;;10.71;30.36
80248;BME280;69560;52.206;21.018;2024-01-10T10:46:39;101770.44;;;11.10;30.45
80248;BME280;69560;52.206;21.018;2024-01-10T10:53:13;101768.09;;;11.50;29.99
80248;BME280;69560;52.206;21.018;2024-01-10T10:55:42;101757.13;;;11.62;29.80
80248;BME280;69560;52.206;21.018;2024-01-10T10:58:09;101748.45;;;12.00;30.18
80248;BME280;69560;52.206;21.018;2024-01-10T11:00:37;101744.69;;;12.18;29.83
80248;BME280;69560;52.206;21.018;2024-01-10T11:03:04;101746.07;;;12.11;29.69
80248;BME280;69560;52.206;21.018;2024-01-10T11:05:31;101746.33;;;12.13;29.82
80248;BME280;69560;52.206;21.018;2024-01-10T11:08:02;101742.13;;;11.76;29.01
80248;BME280;69560;52.206;21.018;2024-01-10T11:14:25;101729.13;;;10.79;28.87
80248;BME280;69560;52.206;21.018;2024-01-10T11:23:47;101725.61;;;9.07;29.29
80248;BME280;69560;52.206;21.018;2024-01-10T11:26:16;101728.33;;;8.57;29.42
80248;BME280;69560;52.206;21.018;2024-01-10T11:28:59;101727.91;;;8.31;29.57
80248;BME280;69560;52.206;21.018;2024-01-10T11:31:28;101724.73;;;8.09;29.80
80248;BME280;69560;52.206;21.018;2024-01-10T11:34:00;101720.41;;;7.98;29.99
80248;BME280;69560;52.206;21.018;2024-01-10T11:36:27;101712.96;;;8.32;30.36
80248;BME280;69560;52.206;21.018;2024-01-10T11:38:58;101709.83;;;8.92;30.57
80248;BME280;69560;52.206;21.018;2024-01-10T11:41:46;101705.45;;;9.47;30.61
80248;BME280;69560;52.206;21.018;2024-01-10T11:44:33;101703.09;;;10.01;30.66
80248;BME280;69560;52.206;21.018;2024-01-10T11:47:09;101702.05;;;10.36;30.30
80248;BME280;69560;52.206;21.018;2024-01-10T11:49:38;101698.33;;;10.47;30.14
80248;BME280;69560;52.206;21.018;2024-01-10T11:52:06;101701.48;;;10.87;30.12
80248;BME280;69560;52.206;21.018;2024-01-10T11:57:06;101686.78;;;11.38;29.36
80248;BME280;69560;52.206;21.018;2024-01-10T11:59:34;101679.89;;;11.35;29.14
80248;BME280;69560;52.206;21.018;2024-01-10T12:05:21;101680.52;;;11.54;28.84
80248;BME280;69560;52.206;21.018;2024-01-10T12:11:09;101683.90;;;12.26;28.96
80248;BME280;69560;52.206;21.018;2024-01-10T12:13:36;101675.46;;;12.67;28.92
80248;BME280;69560;52.206;21.018;2024-01-10T12:16:02;101671.65;;;12.86;28.65
80248;BME280;69560;52.206;21.018;2024-01-10T12:18:29;101675.12;;;13.02;28.32
80248;BME280;69560;52.206;21.018;2024-01-10T12:21:14;101672.93;;;13.13;28.23
80248;BME280;69560;52.206;21.018;2024-01-10T12:23:40;101669.77;;;13.34;28.12
80248;BME280;69560;52.206;21.018;2024-01-10T12:26:22;101670.34;;;13.55;28.00
80248;BME280;69560;52.206;21.018;2024-01-10T12:28:55;101665.31;;;13.71;27.71
80248;BME280;69560;52.206;21.018;2024-01-10T12:31:22;101667.80;;;13.82;27.30
80248;BME280;69560;52.206;21.018;2024-01-10T12:33:49;101671.73;;;13.92;27.12
80248;BME280;69560;52.206;21.018;2024-01-10T12:39:52;101677.73;;;14.02;26.60
80248;BME280;69560;52.206;21.018;2024-01-10T12:42:19;101679.12;;;14.11;26.66
80248;BME280;69560;52.206;21.018;2024-01-10T12:44:47;101681.62;;;14.15;26.32
80248;BME280;69560;52.206;21.018;2024-01-10T12:47:25;101684.28;;;14.14;26.37
80248;BME280;69560;52.206;21.018;2024-01-10T12:49:55;101675.63;;;14.09;26.33
80248;BME280;69560;52.206;21.018;2024-01-10T12:52:22;101673.52;;;14.05;26.46
80248;BME280;69560;52.206;21.018;2024-01-10T12:55:05;101664.14;;;13.91;26.30
80248;BME280;69560;52.206;21.018;2024-01-10T12:57:31;101657.95;;;13.73;26.16
80248;BME280;69560;52.206;21.018;2024-01-10T12:59:58;101649.45;;;13.49;26.14
80248;BME280;69560;52.206;21.018;2024-01-10T13:02:25;101647.85;;;13.13;25.96
80248;BME280;69560;52.206;21.018;2024-01-10T13:05:06;101649.15;;;12.54;25.91
80248;BME280;69560;52.206;21.018;2024-01-10T13:07:36;101647.82;;;12.07;26.38
80248;BME280;69560;52.206;21.018;2024-01-10T13:10:03;101649.44;;;11.61;26.54
80248;BME280;69560;52.206;21.018;2024-01-10T13:12:33;101652.61;;;10.98;26.67
80248;BME280;69560;52.206;21.018;2024-01-10T13:15:00;101659.61;;;10.26;26.61
80248;BME280;69560;52.206;21.018;2024-01-10T13:17:27;101656.54;;;9.59;27.00
80248;BME280;69560;52.206;21.018;2024-01-10T13:19:55;101656.09;;;9.02;27.46
80248;BME280;69560;52.206;21.018;2024-01-10T13:22:23;101649.20;;;8.52;27.93
80248;BME280;69560;52.206;21.018;2024-01-10T13:24:50;101644.48;;;7.96;28.14
80248;BME280;69560;52.206;21.018;2024-01-10T13:27:16;101652.15;;;7.41;28.50
80248;BME280;69560;52.206;21.018;2024-01-10T13:29:43;101650.39;;;6.99;28.97
80248;BME280;69560;52.206;21.018;2024-01-10T13:32:09;101643.79;;;6.64;29.52